Wellersburg, Pennsylvania
Current Conditions -  °F | °C
As of 8:32 PM on Wednesday 22 Oct 2014 (Local Time) from KCBE Reporting Station
Broken Clouds Broken Clouds  
Wind Chill: 52°   Ceiling: 2900
Heat Index: 52°   Visibility: 10mi
Dew Point: 41°   Wind: 17mph
Humidity: 67%   Direction: 330°NNW
Pressure: 30.12"   Gusts: 23mph
Location:  39.73°N, 78.85°W
Report Text: KCBE 230032Z AUTO 33015G20KT 10SM BKN029 11/05 A3012 RMK AO1
Loading
Personal Weather Stations






























Interactive Weather Map
Tropical Storm Tracking
New forecast layout! Learn more

10-Day Weather Forecast

Advertisements
Track Severe Weather on mobile